Time;durP1;ratioP1;P1;durP2;ratioP2;P2;SDS_P1;SDS_P2;PMS_P1;PMS_P2;Temp;Humidity;BMP_temperature;BMP_pressure;BME280_temperature;BME280_humidity;BME280_pressure;Samples;Min_cycle;Max_cycle;Signal;HPM_P1;HPM_P2
2022/07/21 00:01:47;;;;;;;11.05;4.70;;;;;;;;;;5076999;28;20031;-81
2022/07/21 00:04:15;;;;;;;11.65;4.85;;;;;;;;;;5077117;28;20025;-81
2022/07/21 00:06:43;;;;;;;13.98;4.32;;;;;;;;;;5076817;28;20319;-81
2022/07/21 00:09:10;;;;;;;8.48;4.10;;;;;;;;;;5076572;28;20024;-81
2022/07/21 00:11:36;;;;;;;11.50;4.30;;;;;;;;;;5095818;28;20491;-81
2022/07/21 00:14:02;;;;;;;11.00;3.63;;;;;;;;;;5097003;28;20020;-81
2022/07/21 00:16:28;;;;;;;9.88;3.88;;;;;;;;;;5095898;28;20066;-80
2022/07/21 00:18:54;;;;;;;7.75;4.50;;;;;;;;;;5076766;28;20025;-81
2022/07/21 00:21:20;;;;;;;11.00;4.80;;;;;;;;;;5076895;28;20024;-81
2022/07/21 00:23:46;;;;;;;11.35;5.93;;;;;;;;;;5081154;28;20036;-81
2022/07/21 00:26:12;;;;;;;12.55;6.18;;;;;;;;;;5096906;28;20123;-81
2022/07/21 00:28:39;;;;;;;13.35;6.68;;;;;;;;;;5095827;28;20024;-81
2022/07/21 00:31:05;;;;;;;12.65;7.00;;;;;;;;;;5096805;28;20402;-81
2022/07/21 00:33:31;;;;;;;11.05;6.45;;;;;;;;;;5096732;28;20398;-81
2022/07/21 00:35:57;;;;;;;15.82;5.63;;;;;;;;;;5096828;28;20089;-81
2022/07/21 00:38:23;;;;;;;14.77;6.43;;;;;;;;;;5076991;28;20028;-81
2022/07/21 00:40:49;;;;;;;13.13;5.38;;;;;;;;;;5076529;28;20021;-81
2022/07/21 00:43:15;;;;;;;13.30;5.53;;;;;;;;;;5076623;28;20028;-81
2022/07/21 00:45:41;;;;;;;8.73;5.43;;;;;;;;;;5076370;28;20284;-81
2022/07/21 00:48:07;;;;;;;7.60;5.20;;;;;;;;;;5076379;28;20059;-81
2022/07/21 00:50:34;;;;;;;13.30;5.88;;;;;;;;;;5076238;28;20028;-81
2022/07/21 00:53:00;;;;;;;11.15;4.70;;;;;;;;;;5078863;28;20052;-81
2022/07/21 00:55:26;;;;;;;9.55;3.72;;;;;;;;;;5096821;28;20035;-81
2022/07/21 00:57:52;;;;;;;9.38;3.30;;;;;;;;;;5079172;28;20303;-81
2022/07/21 01:00:21;;;;;;;7.55;3.70;;;;;;;;;;5079709;28;20028;-81
2022/07/21 01:02:47;;;;;;;7.05;3.80;;;;;;;;;;5079970;28;20035;-81
2022/07/21 01:05:18;;;;;;;8.38;3.85;;;;;;;;;;5079631;28;20025;-81
2022/07/21 01:07:44;;;;;;;;;;;;;;;;;;5079094;28;20020;-81
2022/07/21 01:10:14;;;;;;;7.45;3.65;;;;;;;;;;5079621;28;19911;-81
2022/07/21 01:12:40;;;;;;;7.72;3.70;;;;;;;;;;5079889;28;20311;-82
2022/07/21 01:15:07;;;;;;;10.90;3.78;;;;;;;;;;5079306;28;20037;-81
2022/07/21 01:17:34;;;;;;;10.20;4.35;;;;;;;;;;5079704;28;20029;-81
2022/07/21 01:20:05;;;;;;;6.40;3.83;;;;;;;;;;5078644;28;20017;-82
2022/07/21 01:22:32;;;;;;;12.20;4.20;;;;;;;;;;5078680;28;20040;-82
2022/07/21 01:24:58;;;;;;;9.20;4.15;;;;;;;;;;5079616;28;20098;-82
2022/07/21 01:27:26;;;;;;;13.35;4.35;;;;;;;;;;5079510;28;20035;-82
2022/07/21 01:29:52;;;;;;;12.85;3.70;;;;;;;;;;5090011;28;20028;-82
2022/07/21 01:32:18;;;;;;;6.85;3.78;;;;;;;;;;5098571;28;20051;-82
2022/07/21 01:34:44;;;;;;;7.95;3.72;;;;;;;;;;5089989;28;20342;-82
2022/07/21 01:37:10;;;;;;;11.05;4.13;;;;;;;;;;5079318;28;20398;-82
2022/07/21 01:42:20;;;;;;;10.25;5.68;;;;;;;;;;5079567;28;20090;-82
2022/07/21 01:44:46;;;;;;;17.77;9.88;;;;;;;;;;5078007;28;20040;-82
2022/07/21 01:47:12;;;;;;;18.50;12.88;;;;;;;;;;5078131;28;20116;-82
2022/07/21 01:49:38;;;;;;;18.70;11.35;;;;;;;;;;5087995;28;20546;-82
2022/07/21 01:52:04;;;;;;;15.25;10.00;;;;;;;;;;5099038;28;20069;-82
2022/07/21 01:54:30;;;;;;;13.13;8.20;;;;;;;;;;5093604;28;20048;-82
2022/07/21 01:56:56;;;;;;;14.80;6.97;;;;;;;;;;5096311;28;20433;-82
2022/07/21 01:59:22;;;;;;;14.30;6.45;;;;;;;;;;5099349;28;20413;-81
2022/07/21 02:01:48;;;;;;;12.43;6.10;;;;;;;;;;5099175;28;20065;-81
2022/07/21 02:04:14;;;;;;;10.63;5.45;;;;;;;;;;5097969;28;20027;-81
2022/07/21 02:06:41;;;;;;;9.88;5.20;;;;;;;;;;5098802;28;20114;-81
2022/07/21 02:09:08;;;;;;;10.45;4.57;;;;;;;;;;5099122;28;20024;-81
2022/07/21 02:11:34;;;;;;;12.77;5.10;;;;;;;;;;5098359;28;20032;-83
2022/07/21 02:14:01;;;;;;;9.52;4.60;;;;;;;;;;5097553;28;20023;-82
2022/07/21 02:16:27;;;;;;;8.43;4.72;;;;;;;;;;5078719;28;20027;-82
2022/07/21 02:18:53;;;;;;;9.63;4.22;;;;;;;;;;5078628;28;20021;-82
2022/07/21 02:21:19;;;;;;;9.10;4.40;;;;;;;;;;5078380;28;20071;-82
2022/07/21 02:23:45;;;;;;;8.38;3.95;;;;;;;;;;5078454;28;20418;-82
2022/07/21 02:26:11;;;;;;;9.00;4.25;;;;;;;;;;5078431;28;20031;-82
2022/07/21 02:28:37;;;;;;;7.38;4.93;;;;;;;;;;5078144;28;20464;-81
2022/07/21 02:31:04;;;;;;;13.57;4.55;;;;;;;;;;5097338;28;20034;-81
2022/07/21 02:33:30;;;;;;;10.18;4.45;;;;;;;;;;5098075;28;20394;-82
2022/07/21 02:35:56;;;;;;;10.02;4.95;;;;;;;;;;5077277;28;20032;-82
2022/07/21 02:38:22;;;;;;;7.88;3.88;;;;;;;;;;5076873;28;20056;-82
2022/07/21 02:40:48;;;;;;;14.80;5.15;;;;;;;;;;5078454;28;20031;-82
2022/07/21 02:43:14;;;;;;;11.30;4.50;;;;;;;;;;5078214;28;20334;-82
2022/07/21 02:45:41;;;;;;;8.70;4.35;;;;;;;;;;5077090;28;20418;-82
2022/07/21 02:48:09;;;;;;;9.32;4.10;;;;;;;;;;5083980;28;20025;-82
2022/07/21 02:50:35;;;;;;;8.77;3.92;;;;;;;;;;5077676;28;20296;-81
2022/07/21 02:53:03;;;;;;;10.15;4.57;;;;;;;;;;5077804;28;20039;-81
2022/07/21 02:55:29;;;;;;;8.13;3.80;;;;;;;;;;5077756;28;20029;-81
2022/07/21 02:58:05;;;;;;;8.95;3.50;;;;;;;;;;5077729;28;20020;-81
2022/07/21 03:00:31;;;;;;;6.82;3.88;;;;;;;;;;5077757;28;20038;-81
2022/07/21 03:02:57;;;;;;;12.52;4.32;;;;;;;;;;5077690;28;20399;-81
2022/07/21 03:05:23;;;;;;;7.88;4.10;;;;;;;;;;5077669;28;20112;-81
2022/07/21 03:07:49;;;;;;;9.65;3.75;;;;;;;;;;5077903;28;20112;-81
2022/07/21 03:10:15;;;;;;;10.07;4.25;;;;;;;;;;5094966;28;20119;-81
2022/07/21 03:12:41;;;;;;;8.55;3.67;;;;;;;;;;5095888;28;20044;-80
2022/07/21 03:15:08;;;;;;;7.22;3.97;;;;;;;;;;5097732;28;20422;-81
2022/07/21 03:17:34;;;;;;;12.23;3.83;;;;;;;;;;5097549;28;20302;-81
2022/07/21 03:20:00;;;;;;;9.25;3.75;;;;;;;;;;5097519;28;20470;-81
2022/07/21 03:22:26;;;;;;;13.52;3.90;;;;;;;;;;5096470;28;20036;-81
2022/07/21 03:24:52;;;;;;;12.88;4.57;;;;;;;;;;5097534;28;20114;-81
2022/07/21 03:27:18;;;;;;;12.20;3.83;;;;;;;;;;5096062;28;20066;-81
2022/07/21 03:29:44;;;;;;;12.75;4.35;;;;;;;;;;5086429;28;20035;-81
2022/07/21 03:32:11;;;;;;;14.02;4.82;;;;;;;;;;5092137;28;20031;-81
2022/07/21 03:34:37;;;;;;;10.25;3.80;;;;;;;;;;5097367;28;20021;-81
2022/07/21 03:37:04;;;;;;;9.27;4.32;;;;;;;;;;5097436;28;20103;-81
2022/07/21 03:39:30;;;;;;;11.65;4.22;;;;;;;;;;5095448;28;20506;-81
2022/07/21 03:41:56;;;;;;;13.00;4.50;;;;;;;;;;5095504;28;20463;-81
2022/07/21 03:44:24;;;;;;;11.93;4.25;;;;;;;;;;5097441;28;20051;-81
2022/07/21 03:46:50;;;;;;;9.35;4.20;;;;;;;;;;5093341;28;20145;-81
2022/07/21 03:49:16;;;;;;;11.82;4.70;;;;;;;;;;5077052;28;20032;-81
2022/07/21 03:51:42;;;;;;;17.98;4.70;;;;;;;;;;5077790;28;20049;-81
2022/07/21 03:54:10;;;;;;;8.23;4.00;;;;;;;;;;5077140;28;20021;-81
2022/07/21 03:56:36;;;;;;;7.20;4.45;;;;;;;;;;5077244;28;20024;-82
2022/07/21 03:59:02;;;;;;;10.52;4.20;;;;;;;;;;5082244;28;20031;-81
2022/07/21 04:01:28;;;;;;;11.80;4.65;;;;;;;;;;5097363;28;20108;-83
2022/07/21 04:03:54;;;;;;;14.35;4.70;;;;;;;;;;5097328;28;20044;-83
2022/07/21 04:06:20;;;;;;;9.77;4.97;;;;;;;;;;5087499;28;20024;-82
2022/07/21 04:08:46;;;;;;;8.50;4.30;;;;;;;;;;5077069;28;20021;-82
2022/07/21 04:11:14;;;;;;;12.23;4.10;;;;;;;;;;5076944;28;20369;-81
2022/07/21 04:13:40;;;;;;;11.40;4.32;;;;;;;;;;5076779;28;20039;-81
2022/07/21 04:16:06;;;;;;;9.02;4.35;;;;;;;;;;5075791;28;20334;-81
2022/07/21 04:18:32;;;;;;;10.60;4.30;;;;;;;;;;5076719;28;20025;-80
2022/07/21 04:20:58;;;;;;;8.80;4.05;;;;;;;;;;5076718;28;20028;-81
2022/07/21 04:23:24;;;;;;;11.40;4.03;;;;;;;;;;5076934;28;20039;-81
2022/07/21 04:25:50;;;;;;;11.88;4.43;;;;;;;;;;5076502;28;20364;-82
2022/07/21 04:28:16;;;;;;;9.07;4.25;;;;;;;;;;5090413;28;20036;-82
2022/07/21 04:30:43;;;;;;;7.07;4.32;;;;;;;;;;5092650;28;20304;-79
2022/07/21 04:33:09;;;;;;;9.55;3.75;;;;;;;;;;5083259;28;20039;-82
2022/07/21 04:35:35;;;;;;;10.68;3.72;;;;;;;;;;5080551;28;20020;-83
2022/07/21 04:38:01;;;;;;;12.75;4.05;;;;;;;;;;5080776;28;20020;-83
2022/07/21 04:40:27;;;;;;;10.75;4.25;;;;;;;;;;5091275;28;20020;-80
2022/07/21 04:42:53;;;;;;;8.80;3.80;;;;;;;;;;5099646;28;20035;-80
2022/07/21 04:45:20;;;;;;;6.88;3.63;;;;;;;;;;5099389;28;20348;-76
2022/07/21 04:47:47;;;;;;;7.97;3.63;;;;;;;;;;5100438;28;20361;-76
2022/07/21 04:50:13;;;;;;;7.72;3.50;;;;;;;;;;5100286;28;20016;-76
2022/07/21 04:52:39;;;;;;;17.02;4.30;;;;;;;;;;5099120;28;20446;-76
2022/07/21 04:55:06;;;;;;;13.23;4.15;;;;;;;;;;5100596;28;20024;-76
2022/07/21 04:57:32;;;;;;;11.50;4.78;;;;;;;;;;5100346;28;20116;-76
2022/07/21 04:59:58;;;;;;;11.95;4.30;;;;;;;;;;5100372;28;20052;-76
2022/07/21 05:02:24;;;;;;;10.75;4.22;;;;;;;;;;5100236;28;20020;-76
2022/07/21 05:04:50;;;;;;;8.27;3.55;;;;;;;;;;5100163;28;20024;-76
2022/07/21 05:07:16;;;;;;;11.30;3.88;;;;;;;;;;5100145;28;20027;-76
2022/07/21 05:09:42;;;;;;;8.60;3.92;;;;;;;;;;5098450;28;20334;-76
2022/07/21 05:12:08;;;;;;;8.45;3.97;;;;;;;;;;5098302;28;20031;-76
2022/07/21 05:14:34;;;;;;;9.82;4.00;;;;;;;;;;5099992;28;20020;-75
2022/07/21 05:17:00;;;;;;;6.30;3.67;;;;;;;;;;5099798;28;20066;-76
2022/07/21 05:19:26;;;;;;;9.07;3.70;;;;;;;;;;5099033;28;20058;-76
2022/07/21 05:21:52;;;;;;;5.10;3.30;;;;;;;;;;5097931;28;20031;-76
2022/07/21 05:24:18;;;;;;;7.13;3.53;;;;;;;;;;5099214;28;20020;-75
2022/07/21 05:26:44;;;;;;;8.60;3.47;;;;;;;;;;5099899;28;20024;-76
2022/07/21 05:29:10;;;;;;;10.77;3.53;;;;;;;;;;5099586;28;20310;-76
2022/07/21 05:31:36;;;;;;;12.05;3.45;;;;;;;;;;5098212;28;20444;-76
2022/07/21 05:34:02;;;;;;;6.78;3.75;;;;;;;;;;5099535;28;20473;-76
2022/07/21 05:36:28;;;;;;;7.22;3.38;;;;;;;;;;5098429;28;20031;-76
2022/07/21 05:38:54;;;;;;;12.68;3.58;;;;;;;;;;5099532;28;20012;-76
2022/07/21 05:41:21;;;;;;;7.13;2.90;;;;;;;;;;5099231;28;20028;-76
2022/07/21 05:43:47;;;;;;;6.00;3.28;;;;;;;;;;5099596;28;20322;-76
2022/07/21 05:46:13;;;;;;;10.30;3.15;;;;;;;;;;5098138;28;20031;-76
2022/07/21 05:48:39;;;;;;;8.93;3.40;;;;;;;;;;5099308;28;20481;-77
2022/07/21 05:51:06;;;;;;;8.15;3.17;;;;;;;;;;5099016;28;20108;-76
2022/07/21 05:53:32;;;;;;;9.13;3.03;;;;;;;;;;5099410;28;20077;-76
2022/07/21 05:55:58;;;;;;;9.45;3.00;;;;;;;;;;5099433;28;20020;-75
2022/07/21 05:58:24;;;;;;;6.40;3.35;;;;;;;;;;5099268;28;20129;-76
2022/07/21 06:01:08;;;;;;;6.93;3.33;;;;;;;;;;5098984;28;20052;-76
2022/07/21 06:03:35;;;;;;;11.15;3.38;;;;;;;;;;5098952;28;20028;-76
2022/07/21 06:06:01;;;;;;;13.15;3.63;;;;;;;;;;5099083;28;20508;-76
2022/07/21 06:08:27;;;;;;;11.65;4.05;;;;;;;;;;5098993;28;20064;-76
2022/07/21 06:10:53;;;;;;;13.20;3.53;;;;;;;;;;5098970;28;20107;-76
2022/07/21 06:13:19;;;;;;;7.95;3.22;;;;;;;;;;5098889;28;20107;-76
2022/07/21 06:15:45;;;;;;;11.00;3.55;;;;;;;;;;5098688;28;20493;-76
2022/07/21 06:18:11;;;;;;;10.65;3.20;;;;;;;;;;5098656;28;20107;-76
2022/07/21 06:20:37;;;;;;;8.73;3.53;;;;;;;;;;5098521;28;20402;-76
2022/07/21 06:23:03;;;;;;;9.55;3.75;;;;;;;;;;5098826;28;20028;-76
2022/07/21 06:25:29;;;;;;;8.32;3.90;;;;;;;;;;5098746;28;20027;-76
2022/07/21 06:27:55;;;;;;;10.80;3.78;;;;;;;;;;5098666;28;20051;-76
2022/07/21 06:30:21;;;;;;;16.42;4.15;;;;;;;;;;5098582;28;20089;-79
2022/07/21 06:32:47;;;;;;;13.63;4.15;;;;;;;;;;5098352;28;20317;-76
2022/07/21 06:35:14;;;;;;;14.02;4.07;;;;;;;;;;5097340;28;20114;-76
2022/07/21 06:37:44;;;;;;;14.32;3.75;;;;;;;;;;5098396;28;20410;-76
2022/07/21 06:40:10;;;;;;;11.40;3.35;;;;;;;;;;5098594;28;20024;-76
2022/07/21 06:42:36;;;;;;;11.88;3.40;;;;;;;;;;5098538;28;20036;-76
2022/07/21 06:45:03;;;;;;;7.55;3.00;;;;;;;;;;5097426;28;20024;-76
2022/07/21 06:47:29;;;;;;;8.30;4.07;;;;;;;;;;5098216;28;20329;-76
2022/07/21 06:49:55;;;;;;;16.73;7.00;;;;;;;;;;5098091;28;20479;-76
2022/07/21 06:52:21;;;;;;;11.13;4.32;;;;;;;;;;5096664;28;20058;-76
2022/07/21 06:54:47;;;;;;;12.18;3.60;;;;;;;;;;5098319;28;20447;-76
2022/07/21 06:57:13;;;;;;;10.27;3.40;;;;;;;;;;5097377;28;20397;-76
2022/07/21 06:59:39;;;;;;;15.98;3.97;;;;;;;;;;5098069;28;20087;-76
2022/07/21 07:02:05;;;;;;;10.18;3.80;;;;;;;;;;5096865;28;20432;-76
2022/07/21 07:04:31;;;;;;;9.60;3.85;;;;;;;;;;5097843;28;20024;-79
2022/07/21 07:06:59;;;;;;;7.90;3.58;;;;;;;;;;5097868;28;20337;-76
2022/07/21 07:09:25;;;;;;;8.43;3.60;;;;;;;;;;5097743;28;20024;-76
2022/07/21 07:11:52;;;;;;;8.48;3.55;;;;;;;;;;5097755;28;20036;-76
2022/07/21 07:14:19;;;;;;;10.57;3.30;;;;;;;;;;5097866;28;20020;-76
2022/07/21 07:16:45;;;;;;;10.32;3.40;;;;;;;;;;5096669;28;20020;-76
2022/07/21 07:19:11;;;;;;;10.63;3.30;;;;;;;;;;5097697;28;20031;-76
2022/07/21 07:21:37;;;;;;;10.18;4.18;;;;;;;;;;5097789;28;20111;-76
2022/07/21 07:24:04;;;;;;;10.60;3.92;;;;;;;;;;5097502;28;20016;-76
2022/07/21 07:26:30;;;;;;;9.40;3.83;;;;;;;;;;5097697;28;20028;-76
2022/07/21 07:28:56;;;;;;;7.28;3.55;;;;;;;;;;5097777;28;20037;-76
2022/07/21 07:31:22;;;;;;;9.57;3.70;;;;;;;;;;5097521;28;20028;-76
2022/07/21 07:33:48;;;;;;;16.88;3.92;;;;;;;;;;5097229;28;20340;-76
2022/07/21 07:36:14;;;;;;;8.80;3.75;;;;;;;;;;5097416;28;20024;-76
2022/07/21 07:38:41;;;;;;;14.00;4.70;;;;;;;;;;5097617;28;20099;-76
2022/07/21 07:41:07;;;;;;;11.57;4.35;;;;;;;;;;5097505;28;20069;-76
2022/07/21 07:43:33;;;;;;;12.35;3.88;;;;;;;;;;5097396;28;20028;-76
2022/07/21 07:46:01;;;;;;;9.68;3.53;;;;;;;;;;5096256;28;20028;-76
2022/07/21 07:48:27;;;;;;;17.10;4.10;;;;;;;;;;5097106;28;20032;-76
2022/07/21 07:50:53;;;;;;;8.88;4.03;;;;;;;;;;5096927;28;20059;-76
2022/07/21 07:53:19;;;;;;;8.00;4.40;;;;;;;;;;5097126;28;20028;-76
2022/07/21 07:55:45;;;;;;;8.88;4.10;;;;;;;;;;5095955;28;20039;-76
2022/07/21 07:58:11;;;;;;;12.93;4.32;;;;;;;;;;5097275;28;20020;-76
2022/07/21 08:00:37;;;;;;;11.27;4.53;;;;;;;;;;5097057;28;20103;-76
2022/07/21 08:03:04;;;;;;;8.52;3.70;;;;;;;;;;5097128;28;20065;-76
2022/07/21 08:05:30;;;;;;;12.57;5.00;;;;;;;;;;5097011;28;20464;-76
2022/07/21 08:07:57;;;;;;;10.65;4.38;;;;;;;;;;5097468;28;20357;-76
2022/07/21 08:10:23;;;;;;;15.80;4.10;;;;;;;;;;5101398;28;20028;-76
2022/07/21 08:12:49;;;;;;;11.15;4.35;;;;;;;;;;5101277;28;20027;-76
2022/07/21 08:15:15;;;;;;;13.98;4.85;;;;;;;;;;5101051;28;20024;-76
2022/07/21 08:17:41;;;;;;;11.25;4.40;;;;;;;;;;5101056;28;20024;-76
2022/07/21 08:20:08;;;;;;;13.55;3.95;;;;;;;;;;5101098;28;20028;-76
2022/07/21 08:22:34;;;;;;;18.63;4.80;;;;;;;;;;5100858;28;20104;-76
2022/07/21 08:25:00;;;;;;;13.32;3.70;;;;;;;;;;5101158;28;20329;-76
2022/07/21 08:27:26;;;;;;;14.13;4.40;;;;;;;;;;5101192;28;20043;-76
2022/07/21 08:29:52;;;;;;;14.75;7.00;;;;;;;;;;5100927;28;20027;-76
2022/07/21 08:32:19;;;;;;;20.40;4.90;;;;;;;;;;5100607;28;20024;-77
2022/07/21 08:34:45;;;;;;;10.27;4.05;;;;;;;;;;5100700;28;20303;-75
2022/07/21 08:37:11;;;;;;;13.55;4.30;;;;;;;;;;5100646;28;20398;-75
2022/07/21 08:39:38;;;;;;;11.15;4.80;;;;;;;;;;5100556;28;20024;-75
2022/07/21 08:42:06;;;;;;;13.35;4.72;;;;;;;;;;5099498;28;20110;-75
2022/07/21 08:44:32;;;;;;;12.18;3.95;;;;;;;;;;5100638;28;20402;-75
2022/07/21 08:47:11;;;;;;;10.18;4.50;;;;;;;;;;5100584;28;20477;-76
2022/07/21 08:49:38;;;;;;;11.35;4.00;;;;;;;;;;5100409;28;20036;-75
2022/07/21 08:52:06;;;;;;;13.50;4.25;;;;;;;;;;5100198;28;20056;-76
2022/07/21 08:54:32;;;;;;;11.02;4.28;;;;;;;;;;5100582;28;20020;-76
2022/07/21 08:56:58;;;;;;;18.42;8.27;;;;;;;;;;5100284;28;20023;-75
2022/07/21 08:59:26;;;;;;;16.95;6.90;;;;;;;;;;5100407;28;20065;-75
2022/07/21 09:01:52;;;;;;;10.88;6.35;;;;;;;;;;5099121;28;20035;-75
2022/07/21 09:04:23;;;;;;;18.48;13.20;;;;;;;;;;5100105;28;20024;-76
2022/07/21 09:06:59;;;;;;;11.15;7.35;;;;;;;;;;5100211;28;20115;-76
2022/07/21 09:09:26;;;;;;;11.35;4.57;;;;;;;;;;5100237;28;20056;-76
2022/07/21 09:11:53;;;;;;;14.98;7.55;;;;;;;;;;5099912;28;20028;-75
2022/07/21 09:14:23;;;;;;;18.05;12.63;;;;;;;;;;5099974;28;20028;-76
2022/07/21 09:16:51;;;;;;;23.37;11.10;;;;;;;;;;5099888;28;20024;-75
2022/07/21 09:19:24;;;;;;;11.68;5.47;;;;;;;;;;5098944;28;20546;-76
2022/07/21 09:21:52;;;;;;;13.30;4.70;;;;;;;;;;5099725;28;20103;-75
2022/07/21 09:24:18;;;;;;;11.05;5.32;;;;;;;;;;5099765;28;20031;-76
2022/07/21 09:26:56;;;;;;;11.18;4.45;;;;;;;;;;5099790;28;20024;-75
2022/07/21 09:29:22;;;;;;;10.85;5.07;;;;;;;;;;5099608;28;20409;-76
2022/07/21 09:31:48;;;;;;;15.63;7.40;;;;;;;;;;5099495;28;20024;-75
2022/07/21 09:34:14;;;;;;;13.30;6.80;;;;;;;;;;5099621;28;20039;-75
2022/07/21 09:36:54;;;;;;;12.38;7.78;;;;;;;;;;5099266;28;20028;-75
2022/07/21 09:39:40;;;;;;;11.53;5.23;;;;;;;;;;5098465;28;20068;-77
2022/07/21 09:42:14;;;;;;;5.80;4.25;;;;;;;;;;5094879;28;20024;-75
2022/07/21 09:44:49;;;;;;;11.15;4.40;;;;;;;;;;5078958;28;20414;-76
2022/07/21 09:47:17;;;;;;;7.07;4.18;;;;;;;;;;5079260;28;20077;-76
2022/07/21 09:49:43;;;;;;;7.05;3.90;;;;;;;;;;5079146;28;20450;-76
2022/07/21 09:52:19;;;;;;;7.50;3.50;;;;;;;;;;5078759;28;20076;-76
2022/07/21 09:54:45;;;;;;;9.75;3.88;;;;;;;;;;5078856;28;20031;-76
2022/07/21 09:57:11;;;;;;;6.78;3.75;;;;;;;;;;5079142;28;20020;-76
2022/07/21 09:59:39;;;;;;;10.63;3.95;;;;;;;;;;5078949;28;20147;-76
2022/07/21 10:02:05;;;;;;;8.88;3.72;;;;;;;;;;5078955;28;20029;-76
2022/07/21 10:04:32;;;;;;;6.80;3.30;;;;;;;;;;5078862;28;20065;-76
2022/07/21 10:06:59;;;;;;;10.88;4.20;;;;;;;;;;5078714;28;20021;-76
2022/07/21 10:09:25;;;;;;;8.05;3.95;;;;;;;;;;5078742;28;20025;-76
2022/07/21 10:11:51;;;;;;;6.95;3.90;;;;;;;;;;5078710;28;20398;-76
2022/07/21 10:14:17;;;;;;;8.20;3.80;;;;;;;;;;5077594;28;20048;-76
2022/07/21 10:16:43;;;;;;;9.60;3.60;;;;;;;;;;5077566;28;20087;-76
2022/07/21 10:19:13;;;;;;;8.88;4.13;;;;;;;;;;5078640;28;20083;-76
2022/07/21 10:21:58;;;;;;;11.73;4.15;;;;;;;;;;5077379;28;20048;-76
2022/07/21 10:24:27;;;;;;;12.45;4.70;;;;;;;;;;5078471;28;20062;-76
2022/07/21 10:27:03;;;;;;;8.45;3.70;;;;;;;;;;5078366;28;20074;-76
2022/07/21 10:29:48;;;;;;;5.28;3.58;;;;;;;;;;5078500;28;20031;-76
2022/07/21 10:32:18;;;;;;;7.43;3.45;;;;;;;;;;5077114;28;20359;-76
2022/07/21 10:34:45;;;;;;;12.43;3.97;;;;;;;;;;5076987;28;20036;-76
2022/07/21 10:37:11;;;;;;;11.10;3.55;;;;;;;;;;5078123;28;20031;-76
2022/07/21 10:39:39;;;;;;;10.80;3.67;;;;;;;;;;5078267;28;20028;-76
2022/07/21 10:42:15;;;;;;;8.65;3.30;;;;;;;;;;5077974;28;20029;-76
2022/07/21 10:44:42;;;;;;;6.38;3.15;;;;;;;;;;5078253;28;20082;-76
2022/07/21 10:47:20;;;;;;;10.68;4.60;;;;;;;;;;5076848;28;20031;-75
2022/07/21 10:49:46;;;;;;;13.35;6.75;;;;;;;;;;5077633;28;20029;-76
2022/07/21 10:52:30;;;;;;;17.42;5.55;;;;;;;;;;5076502;28;20044;-76
2022/07/21 10:55:11;;;;;;;4.93;3.50;;;;;;;;;;5077709;28;20028;-76
2022/07/21 10:57:37;;;;;;;;;;;;;;;;;;5078113;28;20024;-76
2022/07/21 11:00:16;;;;;;;6.85;3.60;;;;;;;;;;5077674;28;19911;-76
2022/07/21 11:02:44;;;;;;;8.55;3.80;;;;;;;;;;5076624;28;20024;-76
2022/07/21 11:05:10;;;;;;;9.15;3.72;;;;;;;;;;5077624;28;20361;-76
2022/07/21 11:07:55;;;;;;;6.25;3.47;;;;;;;;;;5077519;28;20032;-76
2022/07/21 11:10:22;;;;;;;9.63;3.30;;;;;;;;;;5077393;28;20111;-76
2022/07/21 11:12:58;;;;;;;7.57;3.42;;;;;;;;;;5077723;28;20349;-76
2022/07/21 11:15:43;;;;;;;8.15;4.32;;;;;;;;;;5077598;28;20019;-76
2022/07/21 11:18:09;;;;;;;8.45;3.53;;;;;;;;;;5077332;28;20028;-76
2022/07/21 11:20:35;;;;;;;9.65;3.60;;;;;;;;;;5077345;28;20324;-76
2022/07/21 11:23:04;;;;;;;10.07;3.50;;;;;;;;;;5077322;28;20028;-76
2022/07/21 11:25:30;;;;;;;10.35;3.13;;;;;;;;;;5077467;28;20082;-76
2022/07/21 11:27:56;;;;;;;7.38;3.10;;;;;;;;;;5077526;28;20029;-76
2022/07/21 11:30:22;;;;;;;6.95;3.58;;;;;;;;;;5077353;28;20074;-76
2022/07/21 11:32:49;;;;;;;6.65;3.00;;;;;;;;;;5077232;28;20377;-76
2022/07/21 11:35:15;;;;;;;6.18;2.70;;;;;;;;;;5076111;28;20391;-75
2022/07/21 11:37:43;;;;;;;7.75;3.15;;;;;;;;;;5076077;28;20032;-76
2022/07/21 11:40:19;;;;;;;10.68;3.03;;;;;;;;;;5077320;28;20028;-75
2022/07/21 11:42:46;;;;;;;5.95;2.72;;;;;;;;;;5076940;28;20031;-76
2022/07/21 11:45:13;;;;;;;6.13;2.75;;;;;;;;;;5077338;28;20060;-76
2022/07/21 11:47:39;;;;;;;8.88;3.00;;;;;;;;;;5077081;28;20027;-76
2022/07/21 11:50:07;;;;;;;12.63;3.47;;;;;;;;;;5076098;28;20162;-76
2022/07/21 11:52:34;;;;;;;6.32;3.15;;;;;;;;;;5076670;28;20048;-76
2022/07/21 11:55:02;;;;;;;8.00;2.80;;;;;;;;;;5076925;28;20055;-76
2022/07/21 11:57:29;;;;;;;11.30;3.50;;;;;;;;;;5076964;28;20043;-76
2022/07/21 11:59:55;;;;;;;8.30;2.75;;;;;;;;;;5077009;28;20025;-76
2022/07/21 12:02:23;;;;;;;9.38;3.15;;;;;;;;;;5075835;28;20116;-76
2022/07/21 12:04:56;;;;;;;5.78;3.10;;;;;;;;;;5076858;28;20123;-76
2022/07/21 12:07:22;;;;;;;5.68;2.63;;;;;;;;;;5077071;28;20029;-76
2022/07/21 12:09:50;;;;;;;7.15;2.85;;;;;;;;;;5076840;28;20030;-77
2022/07/21 12:12:27;;;;;;;7.68;2.92;;;;;;;;;;5076766;28;20086;-76
2022/07/21 12:14:53;;;;;;;6.40;2.88;;;;;;;;;;5076846;28;20465;-76
2022/07/21 12:17:39;;;;;;;5.88;2.42;;;;;;;;;;5076882;28;20024;-76
2022/07/21 12:20:06;;;;;;;4.43;2.75;;;;;;;;;;5076575;28;20043;-75
2022/07/21 12:22:36;;;;;;;8.18;2.63;;;;;;;;;;5075754;28;20304;-76
2022/07/21 12:25:03;;;;;;;3.55;2.70;;;;;;;;;;5076784;28;20073;-76
2022/07/21 12:27:29;;;;;;;5.43;2.55;;;;;;;;;;5076644;28;20032;-76
2022/07/21 12:29:55;;;;;;;6.78;2.58;;;;;;;;;;5076655;28;20150;-75
2022/07/21 12:32:41;;;;;;;6.85;2.95;;;;;;;;;;5076461;28;20032;-76
2022/07/21 12:35:16;;;;;;;10.35;2.88;;;;;;;;;;5076804;28;20029;-76
2022/07/21 12:37:52;;;;;;;4.13;2.58;;;;;;;;;;5075745;28;20025;-76
2022/07/21 12:40:19;;;;;;;5.32;2.60;;;;;;;;;;5075375;28;20033;-76
2022/07/21 12:42:45;;;;;;;7.07;2.70;;;;;;;;;;5082830;28;20109;-76
2022/07/21 12:45:19;;;;;;;6.38;2.88;;;;;;;;;;5095528;28;20036;-75
2022/07/21 12:48:04;;;;;;;13.95;3.40;;;;;;;;;;5096430;28;20344;-76
2022/07/21 12:50:30;;;;;;;6.13;3.15;;;;;;;;;;5088320;28;20068;-76
2022/07/21 12:52:56;;;;;;;5.60;2.92;;;;;;;;;;5088194;28;20036;-76
2022/07/21 12:55:22;;;;;;;5.53;2.42;;;;;;;;;;5099520;28;20024;-76
2022/07/21 12:57:48;;;;;;;5.53;2.53;;;;;;;;;;5100924;28;20107;-83
2022/07/21 13:00:14;;;;;;;6.97;2.90;;;;;;;;;;5100253;28;20061;-83
2022/07/21 13:02:48;;;;;;;7.57;3.08;;;;;;;;;;5099323;28;20066;-83
2022/07/21 13:05:14;;;;;;;5.93;2.88;;;;;;;;;;5100548;28;20078;-83
2022/07/21 13:07:40;;;;;;;6.15;3.03;;;;;;;;;;5100137;28;20024;-83
2022/07/21 13:10:06;;;;;;;7.15;2.80;;;;;;;;;;5099951;28;20404;-83
2022/07/21 13:12:32;;;;;;;6.20;2.88;;;;;;;;;;5081098;28;20028;-83
2022/07/21 13:14:58;;;;;;;9.57;2.65;;;;;;;;;;5079882;28;20028;-83
2022/07/21 13:17:24;;;;;;;8.43;3.05;;;;;;;;;;5078630;28;20115;-83
2022/07/21 13:19:50;;;;;;;5.90;3.10;;;;;;;;;;5083610;28;20114;-83
2022/07/21 13:22:16;;;;;;;5.80;2.85;;;;;;;;;;5082404;28;20063;-83
2022/07/21 13:24:42;;;;;;;5.55;2.58;;;;;;;;;;5081332;28;20380;-83
2022/07/21 13:27:08;;;;;;;6.93;2.58;;;;;;;;;;5083075;28;20513;-83
2022/07/21 13:29:36;;;;;;;6.55;2.50;;;;;;;;;;5082676;28;20055;-83
2022/07/21 13:32:02;;;;;;;8.85;2.72;;;;;;;;;;5087245;28;20300;-83
2022/07/21 13:34:28;;;;;;;6.95;2.55;;;;;;;;;;5096957;28;20022;-83
2022/07/21 13:36:54;;;;;;;6.68;3.05;;;;;;;;;;5084216;28;20104;-83
2022/07/21 13:39:22;;;;;;;6.60;2.80;;;;;;;;;;5079917;28;20074;-83
2022/07/21 13:41:48;;;;;;;12.93;3.00;;;;;;;;;;5079599;28;20020;-83
2022/07/21 13:44:14;;;;;;;5.97;3.00;;;;;;;;;;5078443;28;20327;-83
2022/07/21 13:46:40;;;;;;;7.07;3.03;;;;;;;;;;5079621;28;20016;-82
2022/07/21 13:49:06;;;;;;;6.43;3.15;;;;;;;;;;5079492;28;20094;-83
2022/07/21 13:51:32;;;;;;;8.27;2.97;;;;;;;;;;5083459;28;20403;-83
2022/07/21 13:53:58;;;;;;;7.05;2.85;;;;;;;;;;5099493;28;20024;-83
2022/07/21 13:56:24;;;;;;;7.95;2.95;;;;;;;;;;5098260;28;20056;-83
2022/07/21 13:58:50;;;;;;;7.05;3.63;;;;;;;;;;5097323;28;20394;-82
2022/07/21 14:01:17;;;;;;;10.85;3.25;;;;;;;;;;5088817;28;20146;-82
2022/07/21 14:04:01;;;;;;;9.55;3.03;;;;;;;;;;5095572;28;20115;-82
2022/07/21 14:06:27;;;;;;;4.22;2.63;;;;;;;;;;5097916;28;20063;-82
2022/07/21 14:08:53;;;;;;;8.07;3.33;;;;;;;;;;5097221;28;20043;-82
2022/07/21 14:11:22;;;;;;;4.63;3.03;;;;;;;;;;5093127;28;20068;-83
2022/07/21 14:13:48;;;;;;;8.00;3.25;;;;;;;;;;5078545;28;20453;-83
2022/07/21 14:16:14;;;;;;;8.88;3.10;;;;;;;;;;5080167;28;20062;-83
2022/07/21 14:18:40;;;;;;;6.55;3.65;;;;;;;;;;5078693;28;20032;-83
2022/07/21 14:21:06;;;;;;;9.48;3.13;;;;;;;;;;5078565;28;20110;-83
2022/07/21 14:23:33;;;;;;;7.28;3.00;;;;;;;;;;5078745;28;20033;-83
2022/07/21 14:26:00;;;;;;;9.35;3.38;;;;;;;;;;5078652;28;20035;-83
2022/07/21 14:28:26;;;;;;;7.00;3.10;;;;;;;;;;5078529;28;20414;-84
2022/07/21 14:30:52;;;;;;;7.50;3.85;;;;;;;;;;5078551;28;20051;-82
2022/07/21 14:33:18;;;;;;;12.13;3.40;;;;;;;;;;5079454;28;20127;-82
2022/07/21 14:35:44;;;;;;;8.88;3.20;;;;;;;;;;5092397;28;20024;-82
2022/07/21 14:38:11;;;;;;;8.10;3.55;;;;;;;;;;5097210;28;20333;-82
2022/07/21 14:40:37;;;;;;;8.18;3.22;;;;;;;;;;5098517;28;20035;-82
2022/07/21 14:43:03;;;;;;;6.00;3.47;;;;;;;;;;5080300;28;20067;-82